createdAt,value
2022-08-02T00:00:55.587Z,7.30
2022-08-02T00:01:57.720Z,8.03
2022-08-02T00:02:59.400Z,8.00
2022-08-02T00:04:01.151Z,8.80
2022-08-02T00:05:02.873Z,7.17
2022-08-02T00:06:04.595Z,12.33
2022-08-02T00:07:06.204Z,7.93
2022-08-02T00:08:07.905Z,12.13
2022-08-02T00:09:09.557Z,8.57
2022-08-02T00:10:12.490Z,14.20
2022-08-02T00:11:14.181Z,18.77
2022-08-02T00:12:15.911Z,9.90
2022-08-02T00:13:17.761Z,8.47
2022-08-02T00:14:19.455Z,10.23
2022-08-02T00:15:21.399Z,15.03
2022-08-02T00:16:37.279Z,8.73
2022-08-02T00:17:40.452Z,15.30
2022-08-02T00:18:42.308Z,9.00
2022-08-02T00:19:44.530Z,12.13
2022-08-02T00:20:46.233Z,9.00
2022-08-02T00:21:48.050Z,13.60
2022-08-02T00:22:49.772Z,9.93
2022-08-02T00:24:27.529Z,11.27
2022-08-02T00:25:13.019Z,8.00
2022-08-02T00:26:14.718Z,8.60
2022-08-02T00:27:16.511Z,10.27
2022-08-02T00:28:21.854Z,14.30
2022-08-02T00:29:30.482Z,13.17
2022-08-02T00:30:32.281Z,9.10
2022-08-02T00:31:33.939Z,10.50
2022-08-02T00:32:35.557Z,10.20
2022-08-02T00:34:27.210Z,9.57
2022-08-02T00:34:58.775Z,9.10
2022-08-02T00:36:00.397Z,9.90
2022-08-02T00:37:02.057Z,8.67
2022-08-02T00:38:04.735Z,9.87
2022-08-02T00:39:06.406Z,8.70
2022-08-02T00:40:28.007Z,8.57
2022-08-02T00:41:29.631Z,8.30
2022-08-02T00:42:31.357Z,8.27
2022-08-02T00:43:33.008Z,10.00
2022-08-02T00:44:34.728Z,11.03
2022-08-02T00:46:02.495Z,8.73
2022-08-02T00:47:00.657Z,8.73
2022-08-02T00:48:03.079Z,8.17
2022-08-02T00:49:04.813Z,9.70
2022-08-02T00:50:08.811Z,11.13
2022-08-02T00:51:11.571Z,8.60
2022-08-02T00:52:13.615Z,8.80
2022-08-02T00:53:15.540Z,11.33
2022-08-02T00:54:17.423Z,9.13
2022-08-02T00:55:19.129Z,9.07
2022-08-02T00:56:32.921Z,8.93
2022-08-02T00:57:34.570Z,9.17
2022-08-02T00:58:36.274Z,10.40
2022-08-02T00:59:37.901Z,8.23
2022-08-02T01:00:39.525Z,12.23
2022-08-02T01:01:56.740Z,11.40
2022-08-02T01:02:59.384Z,13.80
2022-08-02T01:04:01.008Z,7.40
2022-08-02T01:05:03.084Z,8.57
2022-08-02T01:06:12.089Z,9.83
2022-08-02T01:07:14.556Z,9.23
2022-08-02T01:08:16.409Z,9.33
2022-08-02T01:09:18.395Z,10.47
2022-08-02T01:10:20.155Z,8.03
2022-08-02T01:11:21.743Z,8.20
2022-08-02T01:12:23.476Z,9.93
2022-08-02T01:13:25.986Z,9.30
2022-08-02T01:14:27.689Z,8.53
2022-08-02T01:15:35.718Z,9.70
2022-08-02T01:16:46.655Z,8.10
2022-08-02T01:18:03.390Z,8.13
2022-08-02T01:19:42.643Z,8.90
2022-08-02T01:20:50.232Z,9.23
2022-08-02T01:22:13.179Z,9.77
2022-08-02T01:23:38.941Z,7.77
2022-08-02T01:25:07.721Z,8.63
2022-08-02T01:26:27.472Z,9.20
2022-08-02T01:27:37.041Z,5.77
2022-08-02T01:28:49.199Z,7.43
2022-08-02T01:29:55.106Z,7.67
2022-08-02T01:31:01.592Z,11.63
2022-08-02T01:32:28.155Z,9.50
2022-08-02T01:33:44.353Z,7.83
2022-08-02T01:34:57.907Z,7.80
2022-08-02T01:36:01.712Z,8.40
2022-08-02T01:37:22.529Z,10.13
2022-08-02T01:38:32.843Z,9.93
2022-08-02T01:39:36.094Z,7.27
2022-08-02T01:40:39.704Z,9.60
2022-08-02T01:41:43.877Z,7.00
2022-08-02T01:42:48.451Z,8.50
2022-08-02T01:43:53.675Z,7.93
2022-08-02T01:44:57.035Z,7.30
2022-08-02T01:46:01.165Z,8.10
2022-08-02T01:47:11.142Z,7.87
2022-08-02T01:48:14.660Z,12.43
2022-08-02T01:49:20.182Z,8.20
2022-08-02T01:50:33.435Z,7.83
2022-08-02T01:51:55.137Z,7.90
2022-08-02T01:52:58.893Z,10.73
2022-08-02T01:54:01.040Z,12.20
2022-08-02T01:55:10.065Z,8.53
2022-08-02T01:56:21.857Z,10.80
2022-08-02T01:57:26.037Z,9.17
2022-08-02T01:58:31.625Z,7.20
2022-08-02T01:59:35.350Z,8.30
2022-08-02T02:00:40.055Z,9.63
2022-08-02T02:01:42.571Z,10.40
2022-08-02T02:02:47.561Z,6.50
2022-08-02T02:03:49.608Z,7.10
2022-08-02T02:04:52.602Z,4.83
2022-08-02T02:05:57.596Z,5.70
2022-08-02T02:07:00.528Z,4.40
2022-08-02T02:08:05.848Z,4.30
2022-08-02T02:09:08.990Z,4.70
2022-08-02T02:10:14.972Z,9.43
2022-08-02T02:12:11.938Z,3.50
2022-08-02T02:12:39.914Z,3.17
2022-08-02T02:13:42.801Z,3.47
2022-08-02T02:14:51.931Z,3.00
2022-08-02T02:15:55.941Z,5.88
2022-08-02T02:17:00.596Z,3.90
2022-08-02T02:18:12.971Z,3.97
2022-08-02T02:19:20.869Z,3.72
2022-08-02T02:20:23.528Z,4.93
2022-08-02T02:21:25.187Z,4.43
2022-08-02T02:22:26.851Z,3.92
2022-08-02T02:23:28.794Z,6.88
2022-08-02T02:24:35.673Z,8.93
2022-08-02T02:25:46.510Z,4.82
2022-08-02T02:26:52.235Z,9.10
2022-08-02T02:28:22.976Z,5.50
2022-08-02T02:29:28.089Z,4.68
2022-08-02T02:30:33.466Z,5.18
2022-08-02T02:31:38.862Z,5.05
2022-08-02T02:32:43.463Z,8.63
2022-08-02T02:33:57.023Z,5.20
2022-08-02T02:35:00.102Z,5.43
2022-08-02T02:36:03.240Z,4.30
2022-08-02T02:37:08.285Z,6.38
2022-08-02T02:38:15.852Z,5.87
2022-08-02T02:39:22.183Z,5.97
2022-08-02T02:40:25.659Z,5.60
2022-08-02T02:41:27.573Z,5.47
2022-08-02T02:42:33.546Z,5.60
2022-08-02T02:43:37.296Z,5.10
2022-08-02T02:44:40.461Z,4.70
2022-08-02T02:45:43.505Z,5.68
2022-08-02T02:46:46.464Z,9.40
2022-08-02T02:47:49.647Z,4.80
2022-08-02T02:48:52.276Z,5.53
2022-08-02T02:49:55.111Z,5.13
2022-08-02T02:50:59.509Z,6.33
2022-08-02T02:52:03.135Z,7.43
2022-08-02T02:53:05.296Z,4.97
2022-08-02T02:54:31.192Z,10.03
2022-08-02T02:55:32.015Z,5.70
2022-08-02T02:56:34.057Z,5.40
2022-08-02T02:57:37.669Z,5.90
2022-08-02T02:58:40.044Z,4.90
2022-08-02T02:59:49.447Z,5.10
2022-08-02T03:01:10.677Z,4.65
2022-08-02T03:02:13.625Z,5.60
2022-08-02T03:03:16.708Z,5.57
2022-08-02T03:04:24.935Z,5.30
2022-08-02T03:05:26.866Z,5.57
2022-08-02T03:06:29.588Z,5.60
2022-08-02T03:07:33.381Z,4.90
2022-08-02T03:08:35.159Z,4.63
2022-08-02T03:09:38.530Z,4.60
2022-08-02T03:10:40.466Z,3.70
2022-08-02T03:11:42.895Z,4.30
2022-08-02T03:12:44.534Z,4.70
2022-08-02T03:13:46.576Z,4.07
2022-08-02T03:14:49.359Z,5.75
2022-08-02T03:15:55.492Z,4.43
2022-08-02T03:16:57.266Z,3.93
2022-08-02T03:17:58.888Z,4.50
2022-08-02T03:19:03.395Z,4.47
2022-08-02T03:20:11.812Z,4.60
2022-08-02T03:21:13.924Z,4.90
2022-08-02T03:22:15.629Z,4.03
2022-08-02T03:23:17.231Z,4.55
2022-08-02T03:24:28.333Z,4.60
2022-08-02T03:25:30.274Z,4.07
2022-08-02T03:26:31.895Z,4.17
2022-08-02T03:27:33.574Z,4.43
2022-08-02T03:28:35.238Z,3.90
2022-08-02T03:29:36.848Z,4.13
2022-08-02T03:30:38.441Z,4.53
2022-08-02T03:31:41.819Z,4.30
2022-08-02T03:32:47.081Z,6.75
2022-08-02T03:33:49.282Z,5.37
2022-08-02T03:34:51.020Z,4.90
2022-08-02T03:35:56.669Z,4.93
2022-08-02T03:36:59.619Z,4.22
2022-08-02T03:38:02.126Z,4.20
2022-08-02T03:39:05.052Z,5.60
2022-08-02T03:40:09.321Z,4.10
2022-08-02T03:41:13.848Z,3.75
2022-08-02T03:42:16.028Z,4.35
2022-08-02T03:43:18.518Z,3.90
2022-08-02T03:44:20.384Z,4.80
2022-08-02T03:45:22.823Z,6.63
2022-08-02T03:46:25.920Z,4.60
2022-08-02T03:47:29.353Z,7.03
2022-08-02T03:48:34.744Z,6.10
2022-08-02T03:49:37.572Z,6.00
2022-08-02T03:50:39.870Z,7.53
2022-08-02T03:51:41.569Z,19.43
2022-08-02T03:52:44.768Z,15.18
2022-08-02T03:53:47.982Z,11.50
2022-08-02T03:54:49.644Z,12.18
2022-08-02T03:55:51.854Z,22.38
2022-08-02T03:56:53.689Z,16.87
2022-08-02T03:57:55.378Z,11.07
2022-08-02T03:59:11.184Z,17.90
2022-08-02T04:00:18.816Z,11.68
2022-08-02T04:01:20.499Z,15.20
2022-08-02T04:02:22.125Z,7.70
2022-08-02T04:03:24.482Z,10.30
2022-08-02T04:04:26.101Z,10.88
2022-08-02T04:05:27.785Z,10.15
2022-08-02T04:06:29.392Z,11.20
2022-08-02T04:08:34.235Z,5.90
2022-08-02T04:08:53.019Z,5.13
2022-08-02T04:09:54.710Z,6.35
2022-08-02T04:11:14.776Z,8.05
2022-08-02T04:12:16.389Z,6.50
2022-08-02T04:13:18.080Z,7.00
2022-08-02T04:14:22.956Z,5.75
2022-08-02T04:15:25.094Z,5.07
2022-08-02T04:16:45.704Z,6.15
2022-08-02T04:17:56.496Z,5.85
2022-08-02T04:19:03.745Z,5.68
2022-08-02T04:20:10.691Z,6.90
2022-08-02T04:21:17.106Z,6.90
2022-08-02T04:22:37.215Z,9.93
2022-08-02T04:23:40.332Z,13.65
2022-08-02T04:24:50.641Z,19.35
2022-08-02T04:25:53.586Z,19.30
2022-08-02T04:26:58.006Z,24.80
2022-08-02T04:28:16.691Z,12.05
2022-08-02T04:29:19.696Z,23.17
2022-08-02T04:30:21.789Z,18.95
2022-08-02T04:31:24.289Z,30.27
2022-08-02T04:32:25.916Z,25.23
2022-08-02T04:33:27.734Z,28.73
2022-08-02T04:34:30.114Z,11.82
2022-08-02T04:35:31.786Z,25.17
2022-08-02T04:36:33.982Z,24.88
2022-08-02T04:38:09.963Z,16.35
2022-08-02T04:39:02.203Z,19.67
2022-08-02T04:40:08.602Z,12.63
2022-08-02T04:41:10.288Z,20.70
2022-08-02T04:42:23.430Z,14.57
2022-08-02T04:43:25.306Z,13.68
2022-08-02T04:44:27.051Z,19.92
2022-08-02T04:45:30.363Z,17.05
2022-08-02T04:46:32.726Z,13.90
2022-08-02T04:48:01.521Z,12.32
2022-08-02T04:48:56.177Z,15.02
2022-08-02T04:49:57.854Z,15.25
2022-08-02T04:51:00.020Z,22.05
2022-08-02T04:52:01.735Z,17.27
2022-08-02T04:53:03.516Z,18.13
2022-08-02T04:54:09.288Z,15.82
2022-08-02T04:55:11.735Z,20.67
2022-08-02T04:56:13.332Z,16.52
2022-08-02T04:57:33.404Z,13.60
2022-08-02T04:58:40.409Z,15.93
2022-08-02T04:59:42.595Z,13.75
2022-08-02T05:00:44.640Z,21.70
2022-08-02T05:01:46.533Z,17.15
2022-08-02T05:02:48.667Z,14.98
2022-08-02T05:03:50.262Z,20.95
2022-08-02T05:04:51.870Z,24.05
2022-08-02T05:05:53.499Z,23.45
2022-08-02T05:06:55.102Z,19.17
2022-08-02T05:07:56.906Z,27.33
2022-08-02T05:08:58.494Z,21.92
2022-08-02T05:10:00.153Z,20.97
2022-08-02T05:11:03.878Z,27.63
2022-08-02T05:12:06.543Z,25.10
2022-08-02T05:13:08.188Z,29.85
2022-08-02T05:14:09.832Z,23.52
2022-08-02T05:15:13.226Z,23.27
2022-08-02T05:16:15.011Z,23.95
2022-08-02T05:17:16.633Z,28.58
2022-08-02T05:18:18.609Z,20.50
2022-08-02T05:19:20.253Z,23.13
2022-08-02T05:20:21.935Z,17.07
2022-08-02T05:21:23.506Z,26.43
2022-08-02T05:22:25.222Z,14.90
2022-08-02T05:23:26.929Z,21.60
2022-08-02T05:24:28.506Z,17.40
2022-08-02T05:25:30.135Z,13.23
2022-08-02T05:26:31.716Z,15.88
2022-08-02T05:27:33.313Z,17.67
2022-08-02T05:28:34.977Z,36.47
2022-08-02T05:29:38.240Z,26.67
2022-08-02T05:30:40.489Z,25.42
2022-08-02T05:31:42.162Z,17.55
2022-08-02T05:32:49.346Z,39.58
2022-08-02T05:33:51.070Z,15.77
2022-08-02T05:34:52.932Z,26.13
2022-08-02T05:35:54.772Z,19.35
2022-08-02T05:36:56.950Z,19.35
2022-08-02T05:37:58.547Z,13.27
2022-08-02T05:39:04.990Z,19.00
2022-08-02T05:40:12.718Z,15.57
2022-08-02T05:41:14.948Z,18.60
2022-08-02T05:42:16.561Z,22.53
2022-08-02T05:43:18.228Z,17.83
2022-08-02T05:44:22.565Z,14.27
2022-08-02T05:45:24.386Z,17.97
2022-08-02T05:46:26.211Z,21.90
2022-08-02T05:47:28.083Z,18.10
2022-08-02T05:48:32.265Z,21.50
2022-08-02T05:49:34.141Z,18.13
2022-08-02T05:50:39.618Z,17.45
2022-08-02T05:52:00.173Z,16.25
2022-08-02T05:53:14.367Z,15.05
2022-08-02T05:54:20.468Z,14.37
2022-08-02T05:55:28.191Z,16.40
2022-08-02T05:56:55.658Z,20.05
2022-08-02T05:58:16.266Z,16.97
2022-08-02T05:59:37.761Z,27.90
2022-08-02T06:00:41.615Z,19.67
2022-08-02T06:01:43.687Z,31.80
2022-08-02T06:03:04.359Z,23.70
2022-08-02T06:04:11.353Z,18.67
2022-08-02T06:05:15.459Z,23.30
2022-08-02T06:06:20.647Z,28.90
2022-08-02T06:07:24.190Z,25.13
2022-08-02T06:08:32.358Z,18.10
2022-08-02T06:09:35.996Z,20.20
2022-08-02T06:10:40.121Z,18.23
2022-08-02T06:12:01.502Z,17.00
2022-08-02T06:13:08.503Z,18.30
2022-08-02T06:14:10.740Z,25.20
2022-08-02T06:15:15.130Z,21.27
2022-08-02T06:16:18.026Z,24.90
2022-08-02T06:17:34.362Z,20.20
2022-08-02T06:18:44.227Z,20.67
2022-08-02T06:19:51.793Z,28.73
2022-08-02T06:20:56.532Z,18.33
2022-08-02T06:22:40.645Z,22.07
2022-08-02T06:23:58.569Z,25.30
2022-08-02T06:25:02.414Z,25.63
2022-08-02T06:26:06.618Z,20.50
2022-08-02T06:27:08.423Z,19.40
2022-08-02T06:28:11.618Z,25.53
2022-08-02T06:29:14.748Z,20.83
2022-08-02T06:30:16.601Z,22.70
2022-08-02T06:31:18.740Z,19.60
2022-08-02T06:32:21.010Z,23.93
2022-08-02T06:33:23.896Z,29.37
2022-08-02T06:34:25.603Z,22.77
2022-08-02T06:35:41.997Z,21.67
2022-08-02T06:37:04.801Z,23.33
2022-08-02T06:38:09.524Z,23.30
2022-08-02T06:39:23.830Z,17.30
2022-08-02T06:40:44.336Z,17.37
2022-08-02T06:41:49.356Z,19.17
2022-08-02T06:42:57.033Z,18.23
2022-08-02T06:44:26.187Z,16.07
2022-08-02T06:45:25.731Z,21.43
2022-08-02T06:47:09.197Z,14.23
2022-08-02T06:47:49.812Z,19.00
2022-08-02T06:48:51.737Z,18.30
2022-08-02T06:49:54.831Z,16.10
2022-08-02T06:50:56.824Z,18.60
2022-08-02T06:51:58.637Z,20.67
2022-08-02T06:53:00.638Z,21.23
2022-08-02T06:54:02.435Z,17.67
2022-08-02T06:55:05.740Z,20.30
2022-08-02T06:56:07.419Z,19.87
2022-08-02T06:57:10.919Z,21.70
2022-08-02T06:58:14.218Z,21.63
2022-08-02T06:59:15.950Z,19.67
2022-08-02T07:00:17.862Z,23.70
2022-08-02T07:01:19.989Z,17.90
2022-08-02T07:02:21.928Z,18.70
2022-08-02T07:03:25.609Z,23.57
2022-08-02T07:04:27.503Z,26.40
2022-08-02T07:05:29.255Z,16.87
2022-08-02T07:06:31.182Z,18.53
2022-08-02T07:07:33.552Z,21.70
2022-08-02T07:08:38.362Z,19.10
2022-08-02T07:09:56.255Z,17.63
2022-08-02T07:11:05.930Z,16.77
2022-08-02T07:12:07.654Z,18.33
2022-08-02T07:13:09.651Z,19.47
2022-08-02T07:14:11.348Z,18.87
2022-08-02T07:15:13.125Z,20.10
2022-08-02T07:16:14.877Z,25.87
2022-08-02T07:17:16.884Z,14.50
2022-08-02T07:18:18.900Z,19.13
2022-08-02T07:19:20.599Z,18.40
2022-08-02T07:20:22.460Z,17.73
2022-08-02T07:21:56.830Z,17.90
2022-08-02T07:22:45.783Z,21.47
2022-08-02T07:23:47.486Z,15.67
2022-08-02T07:24:49.568Z,16.00
2022-08-02T07:26:02.795Z,14.40
2022-08-02T07:27:11.678Z,18.43
2022-08-02T07:28:23.666Z,17.77
2022-08-02T07:29:26.190Z,16.63
2022-08-02T07:30:27.972Z,14.27
2022-08-02T07:31:29.697Z,15.80
2022-08-02T07:32:32.287Z,18.70
2022-08-02T07:33:38.083Z,13.70
2022-08-02T07:34:42.673Z,20.63
2022-08-02T07:35:45.646Z,18.20
2022-08-02T07:36:51.061Z,16.13
2022-08-02T07:38:01.946Z,23.13
2022-08-02T07:39:04.351Z,14.87
2022-08-02T07:40:12.429Z,18.87
2022-08-02T07:41:15.858Z,14.90
2022-08-02T07:42:17.469Z,14.07
2022-08-02T07:43:19.104Z,22.17
2022-08-02T07:44:22.011Z,12.13
2022-08-02T07:45:24.529Z,15.03
2022-08-02T07:46:26.115Z,14.43
2022-08-02T07:47:30.275Z,13.00
2022-08-02T07:48:31.866Z,15.83
2022-08-02T07:49:33.606Z,14.80
2022-08-02T07:50:35.358Z,15.93
2022-08-02T07:51:36.999Z,14.73
2022-08-02T07:52:39.985Z,17.13
2022-08-02T07:53:51.029Z,12.50
2022-08-02T07:55:04.135Z,11.30
2022-08-02T07:56:05.811Z,11.10
2022-08-02T07:57:07.394Z,14.43
2022-08-02T07:58:13.316Z,15.43
2022-08-02T07:59:15.257Z,12.43
2022-08-02T08:00:17.557Z,12.70
2022-08-02T08:01:19.631Z,16.80
2022-08-02T08:02:21.297Z,14.50
2022-08-02T08:03:23.014Z,13.47
2022-08-02T08:04:24.628Z,13.50
2022-08-02T08:05:26.250Z,11.67
2022-08-02T08:06:28.826Z,12.50
2022-08-02T08:07:30.920Z,9.73
2022-08-02T08:08:35.242Z,10.90
2022-08-02T08:09:41.641Z,8.60
2022-08-02T08:10:43.372Z,7.83
2022-08-02T08:11:44.967Z,11.43
2022-08-02T08:12:46.579Z,11.90
2022-08-02T08:13:48.400Z,9.47
2022-08-02T08:14:50.030Z,7.83
2022-08-02T08:15:52.669Z,9.40
2022-08-02T08:16:54.402Z,9.97
2022-08-02T08:17:56.020Z,10.53
2022-08-02T08:18:57.700Z,9.40
2022-08-02T08:19:59.366Z,12.53
2022-08-02T08:21:01.318Z,6.93
2022-08-02T08:22:06.052Z,8.00
2022-08-02T08:23:07.743Z,7.10
2022-08-02T08:24:09.401Z,8.20
2022-08-02T08:25:11.158Z,10.20
2022-08-02T08:26:15.731Z,10.93
2022-08-02T08:27:18.390Z,19.57
2022-08-02T08:28:20.254Z,7.97
2022-08-02T08:29:22.749Z,6.40
2022-08-02T08:30:24.924Z,12.37
2022-08-02T08:31:26.523Z,5.53
2022-08-02T08:32:28.814Z,6.10
2022-08-02T08:33:30.510Z,7.67
2022-08-02T08:34:32.768Z,4.93
2022-08-02T08:35:34.874Z,4.87
2022-08-02T08:36:37.860Z,4.57
2022-08-02T08:37:39.732Z,3.00
2022-08-02T08:38:43.533Z,3.20
2022-08-02T08:39:57.178Z,3.73
2022-08-02T08:41:00.305Z,3.90
2022-08-02T08:42:02.535Z,4.30
2022-08-02T08:43:05.138Z,3.40
2022-08-02T08:44:08.556Z,3.57
2022-08-02T08:45:10.664Z,7.07
2022-08-02T08:46:27.464Z,6.73
2022-08-02T08:47:39.294Z,4.43
2022-08-02T08:48:46.322Z,6.07
2022-08-02T08:49:52.989Z,5.50
2022-08-02T08:51:04.483Z,5.20
2022-08-02T08:52:07.083Z,4.40
2022-08-02T08:53:14.929Z,6.50
2022-08-02T08:54:18.698Z,3.70
2022-08-02T08:55:23.779Z,4.00
2022-08-02T08:56:33.318Z,8.00
2022-08-02T08:57:38.133Z,3.37
2022-08-02T08:58:39.869Z,4.93
2022-08-02T08:59:41.456Z,7.13
2022-08-02T09:00:43.147Z,5.30
2022-08-02T09:01:49.820Z,4.80
2022-08-02T09:02:52.548Z,7.07
2022-08-02T09:03:54.140Z,6.60
2022-08-02T09:04:56.443Z,5.80
2022-08-02T09:05:58.658Z,7.27
2022-08-02T09:07:00.275Z,5.53
2022-08-02T09:08:01.941Z,3.50
2022-08-02T09:09:03.814Z,3.30
2022-08-02T09:10:43.406Z,2.77
2022-08-02T09:11:45.691Z,3.20
2022-08-02T09:13:37.618Z,3.47
2022-08-02T09:14:32.923Z,2.90
2022-08-02T09:15:34.633Z,2.97
2022-08-02T09:16:39.076Z,3.13
2022-08-02T09:17:54.092Z,2.93
2022-08-02T09:18:56.216Z,3.70
2022-08-02T09:20:07.410Z,3.37
2022-08-02T09:21:09.533Z,2.80
2022-08-02T09:22:12.696Z,3.93
2022-08-02T09:23:14.952Z,3.73
2022-08-02T09:24:21.982Z,4.10
2022-08-02T09:25:23.553Z,3.30
2022-08-02T09:26:25.349Z,5.50
2022-08-02T09:27:27.159Z,3.60
2022-08-02T09:28:30.620Z,3.27
2022-08-02T09:29:32.276Z,7.93
2022-08-02T09:30:42.890Z,4.77
2022-08-02T09:31:49.396Z,3.40
2022-08-02T09:32:51.707Z,8.30
2022-08-02T09:34:00.480Z,12.63
2022-08-02T09:35:02.111Z,5.03
2022-08-02T09:36:08.361Z,7.20
2022-08-02T09:37:28.786Z,3.10
2022-08-02T09:38:31.227Z,3.97
2022-08-02T09:39:47.759Z,5.60
2022-08-02T09:40:49.647Z,1.90
2022-08-02T09:41:51.286Z,2.70
2022-08-02T09:42:59.484Z,7.50
2022-08-02T09:44:06.543Z,3.37
2022-08-02T09:45:10.239Z,2.63
2022-08-02T09:46:24.175Z,2.63
2022-08-02T09:47:27.437Z,2.80
2022-08-02T09:48:29.026Z,3.23
2022-08-02T09:49:33.492Z,6.20
2022-08-02T09:50:40.716Z,3.50
2022-08-02T09:51:54.439Z,5.10
2022-08-02T09:52:57.240Z,2.90
2022-08-02T09:54:08.357Z,2.43
2022-08-02T09:55:11.312Z,2.53
2022-08-02T09:56:29.254Z,5.73
2022-08-02T09:57:38.564Z,2.30
2022-08-02T09:58:40.422Z,2.60
2022-08-02T09:59:53.380Z,2.70
2022-08-02T10:00:56.459Z,2.57
2022-08-02T10:02:02.593Z,2.50
2022-08-02T10:03:16.688Z,2.50
2022-08-02T10:04:25.776Z,4.83
2022-08-02T10:05:34.689Z,2.30
2022-08-02T10:06:44.502Z,2.10
2022-08-02T10:07:46.201Z,2.70
2022-08-02T10:08:48.215Z,2.23
2022-08-02T10:09:51.362Z,3.23
2022-08-02T10:11:00.371Z,2.00
2022-08-02T10:12:03.340Z,2.00
2022-08-02T10:13:06.715Z,3.03
2022-08-02T10:14:10.784Z,1.97
2022-08-02T10:15:12.458Z,2.57
2022-08-02T10:16:16.623Z,3.43
2022-08-02T10:17:21.509Z,2.60
2022-08-02T10:18:38.276Z,2.13
2022-08-02T10:20:03.127Z,4.30
2022-08-02T10:21:06.315Z,1.40
2022-08-02T10:22:13.476Z,2.83
2022-08-02T10:23:16.392Z,2.07
2022-08-02T10:24:21.651Z,2.30
2022-08-02T10:25:23.996Z,1.87
2022-08-02T10:26:26.245Z,2.33
2022-08-02T10:27:43.251Z,3.03
2022-08-02T10:28:53.870Z,2.20
2022-08-02T10:30:00.011Z,2.00
2022-08-02T10:31:04.848Z,2.13
2022-08-02T10:32:09.289Z,1.60
2022-08-02T10:33:13.014Z,3.40
2022-08-02T10:34:19.103Z,3.50
2022-08-02T10:35:25.762Z,2.57
2022-08-02T10:36:31.551Z,1.67
2022-08-02T10:37:37.271Z,2.27
2022-08-02T10:38:39.145Z,2.70
2022-08-02T10:39:41.991Z,1.50
2022-08-02T10:40:47.413Z,3.03
2022-08-02T10:41:51.598Z,3.27
2022-08-02T10:43:01.464Z,2.50
2022-08-02T10:44:03.447Z,2.07
2022-08-02T10:45:14.999Z,2.77
2022-08-02T10:46:36.272Z,2.33
2022-08-02T10:47:38.449Z,2.00
2022-08-02T10:49:23.936Z,1.63
2022-08-02T10:50:43.538Z,1.90
2022-08-02T10:52:03.203Z,1.90
2022-08-02T10:53:27.856Z,1.83
2022-08-02T10:54:37.013Z,1.80
2022-08-02T10:55:46.048Z,2.37
2022-08-02T10:56:52.974Z,1.67
2022-08-02T10:58:29.570Z,2.50
2022-08-02T10:59:36.875Z,3.33
2022-08-02T11:00:38.581Z,2.03
2022-08-02T11:01:44.579Z,5.20
2022-08-02T11:02:53.276Z,2.00
2022-08-02T11:03:59.470Z,1.60
2022-08-02T11:05:07.761Z,2.10
2022-08-02T11:06:25.016Z,2.37
2022-08-02T11:07:35.868Z,3.90
2022-08-02T11:08:37.814Z,1.87
2022-08-02T11:09:40.344Z,4.10
2022-08-02T11:10:42.125Z,1.70
2022-08-02T11:12:03.425Z,9.43
2022-08-02T11:13:19.647Z,2.43
2022-08-02T11:14:21.552Z,1.70
2022-08-02T11:15:23.605Z,2.67
2022-08-02T11:16:57.170Z,1.93
2022-08-02T11:17:59.459Z,2.50
2022-08-02T11:19:02.098Z,3.77
2022-08-02T11:20:12.887Z,1.77
2022-08-02T11:21:34.550Z,2.20
2022-08-02T11:22:36.509Z,4.33
2022-08-02T11:23:45.432Z,2.03
2022-08-02T11:24:47.525Z,3.23
2022-08-02T11:26:10.984Z,3.73
2022-08-02T11:27:21.941Z,1.70
2022-08-02T11:28:25.426Z,3.00
2022-08-02T11:29:42.345Z,1.57
2022-08-02T11:30:44.024Z,2.50
2022-08-02T11:31:46.296Z,1.80
2022-08-02T11:32:48.947Z,4.80
2022-08-02T11:33:51.399Z,2.70
2022-08-02T11:34:54.207Z,1.77
2022-08-02T11:36:02.044Z,1.90
2022-08-02T11:37:03.888Z,2.10
2022-08-02T11:38:20.500Z,2.70
2022-08-02T11:39:23.697Z,3.53
2022-08-02T11:40:37.583Z,2.20
2022-08-02T11:41:46.633Z,1.80
2022-08-02T11:42:53.669Z,2.30
2022-08-02T11:43:56.024Z,2.57
2022-08-02T11:44:57.678Z,1.50
2022-08-02T11:46:03.860Z,1.80
2022-08-02T11:47:06.985Z,1.80
2022-08-02T11:48:08.560Z,2.23
2022-08-02T11:49:14.976Z,1.70
2022-08-02T11:50:18.077Z,3.47
2022-08-02T11:51:19.692Z,5.90
2022-08-02T11:52:33.469Z,1.90
2022-08-02T11:53:48.816Z,4.43
2022-08-02T11:54:50.579Z,1.70
2022-08-02T11:55:57.016Z,3.60
2022-08-02T11:57:09.403Z,3.03
2022-08-02T11:58:11.666Z,1.67
2022-08-02T11:59:14.536Z,2.00
2022-08-02T12:00:19.547Z,1.73
2022-08-02T12:01:21.146Z,4.80
2022-08-02T12:02:26.871Z,11.20
2022-08-02T12:03:38.061Z,2.00
2022-08-02T12:04:40.392Z,6.43
2022-08-02T12:06:05.069Z,3.27
2022-08-02T12:07:08.888Z,2.33
2022-08-02T12:08:10.518Z,1.87
2022-08-02T12:09:18.233Z,1.53
2022-08-02T12:10:24.252Z,3.20
2022-08-02T12:11:25.882Z,1.70
2022-08-02T12:12:49.467Z,3.90
2022-08-02T12:13:56.450Z,2.73
2022-08-02T12:14:59.078Z,2.73
2022-08-02T12:16:30.100Z,1.73
2022-08-02T12:17:50.346Z,1.30
2022-08-02T12:19:10.512Z,1.77
2022-08-02T12:20:17.247Z,1.57
2022-08-02T12:21:26.910Z,1.30
2022-08-02T12:22:28.749Z,1.20
2022-08-02T12:23:30.760Z,1.87
2022-08-02T12:24:32.491Z,1.60
2022-08-02T12:25:35.449Z,1.57
2022-08-02T12:26:47.800Z,2.60
2022-08-02T12:27:53.331Z,1.63
2022-08-02T12:28:59.058Z,1.43
2022-08-02T12:30:12.214Z,1.77
2022-08-02T12:31:14.230Z,1.03
2022-08-02T12:32:24.047Z,1.57
2022-08-02T12:33:29.207Z,3.13
2022-08-02T12:34:32.625Z,1.17
2022-08-02T12:35:34.335Z,2.80
2022-08-02T12:36:36.179Z,1.23
2022-08-02T12:37:41.215Z,1.40
2022-08-02T12:38:51.640Z,2.60
2022-08-02T12:39:53.964Z,1.27
2022-08-02T12:40:55.626Z,1.53
2022-08-02T12:41:57.800Z,1.30
2022-08-02T12:43:01.628Z,3.90
2022-08-02T12:44:03.807Z,1.43
2022-08-02T12:45:07.294Z,2.20
2022-08-02T12:46:17.079Z,1.43
2022-08-02T12:47:21.457Z,1.23
2022-08-02T12:48:52.329Z,2.60
2022-08-02T12:50:16.653Z,1.33
2022-08-02T12:51:23.419Z,1.30
2022-08-02T12:52:25.091Z,1.10
2022-08-02T12:53:33.968Z,1.80
2022-08-02T12:54:41.816Z,1.33
2022-08-02T12:56:02.189Z,1.20
2022-08-02T12:57:16.187Z,6.10
2022-08-02T12:58:18.126Z,1.93
2022-08-02T12:59:38.975Z,3.23
2022-08-02T13:00:41.302Z,1.67
2022-08-02T13:01:43.165Z,1.63
2022-08-02T13:02:44.808Z,5.53
2022-08-02T13:04:09.664Z,1.70
2022-08-02T13:05:12.196Z,1.30
2022-08-02T13:06:39.789Z,7.60
2022-08-02T13:07:36.195Z,1.40
2022-08-02T13:08:38.991Z,3.33
2022-08-02T13:09:45.458Z,1.30
2022-08-02T13:10:47.141Z,1.40
2022-08-02T13:11:48.927Z,3.50
2022-08-02T13:12:51.399Z,3.60
2022-08-02T13:13:53.035Z,1.43
2022-08-02T13:14:54.676Z,1.23
2022-08-02T13:15:56.339Z,1.27
2022-08-02T13:17:01.020Z,2.50
2022-08-02T13:18:03.184Z,4.13
2022-08-02T13:19:04.778Z,1.87
2022-08-02T13:20:07.554Z,1.43
2022-08-02T13:21:23.548Z,3.63
2022-08-02T13:22:34.876Z,1.30
2022-08-02T13:23:54.904Z,1.30
2022-08-02T13:24:57.183Z,1.40
2022-08-02T13:25:58.996Z,1.57
2022-08-02T13:27:04.588Z,1.63
2022-08-02T13:28:10.600Z,1.37
2022-08-02T13:29:13.192Z,1.43
2022-08-02T13:30:15.613Z,1.57
2022-08-02T13:31:35.898Z,1.83
2022-08-02T13:32:38.403Z,3.43
2022-08-02T13:33:40.068Z,1.87
2022-08-02T13:34:41.702Z,1.40
2022-08-02T13:35:44.441Z,1.50
2022-08-02T13:36:46.022Z,1.50
2022-08-02T13:37:48.135Z,1.57
2022-08-02T13:38:49.743Z,1.37
2022-08-02T13:40:18.792Z,1.60
2022-08-02T13:41:13.750Z,2.60
2022-08-02T13:42:17.159Z,2.17
2022-08-02T13:43:18.979Z,1.87
2022-08-02T13:44:20.775Z,1.80
2022-08-02T13:45:22.499Z,1.43
2022-08-02T13:46:29.307Z,2.30
2022-08-02T13:47:36.286Z,6.83
2022-08-02T13:48:38.330Z,2.20
2022-08-02T13:49:51.603Z,2.00
2022-08-02T13:50:53.802Z,4.93
2022-08-02T13:51:55.475Z,1.60
2022-08-02T13:52:57.105Z,5.03
2022-08-02T13:53:58.749Z,1.97
2022-08-02T13:55:00.663Z,1.90
2022-08-02T13:56:03.198Z,1.90
2022-08-02T13:57:04.979Z,1.43
2022-08-02T13:58:06.639Z,1.67
2022-08-02T13:59:26.343Z,1.30
2022-08-02T14:00:34.256Z,4.10
2022-08-02T14:01:37.628Z,2.00
2022-08-02T14:02:40.553Z,1.50
2022-08-02T14:04:07.516Z,1.87
2022-08-02T14:05:04.207Z,1.60
2022-08-02T14:06:06.896Z,1.50
2022-08-02T14:07:08.770Z,1.80
2022-08-02T14:08:15.968Z,2.50
2022-08-02T14:09:18.529Z,1.53
2022-08-02T14:10:20.517Z,6.73
2022-08-02T14:11:22.223Z,1.47
2022-08-02T14:12:23.910Z,2.50
2022-08-02T14:13:25.529Z,2.30
2022-08-02T14:14:27.259Z,3.57
2022-08-02T14:15:30.241Z,1.43
2022-08-02T14:16:33.285Z,5.77
2022-08-02T14:17:35.295Z,1.50
2022-08-02T14:18:37.491Z,2.20
2022-08-02T14:19:39.868Z,1.70
2022-08-02T14:20:43.385Z,1.83
2022-08-02T14:21:46.507Z,3.00
2022-08-02T14:22:49.111Z,3.33
2022-08-02T14:23:51.140Z,1.70
2022-08-02T14:24:52.826Z,1.60
2022-08-02T14:25:54.426Z,1.60
2022-08-02T14:26:56.049Z,1.90
2022-08-02T14:27:57.700Z,2.00